createdAt,value
2018-04-25T00:02:00.572Z,9.31
2018-04-25T00:04:28.479Z,9.24
2018-04-25T00:06:57.232Z,9.27
2018-04-25T00:09:24.792Z,9.22
2018-04-25T00:11:52.654Z,9.05
2018-04-25T00:14:20.377Z,9.04
2018-04-25T00:16:48.600Z,9.02
2018-04-25T00:19:16.404Z,8.98
2018-04-25T00:21:44.309Z,8.81
2018-04-25T00:24:12.733Z,8.77
2018-04-25T00:26:41.451Z,8.54
2018-04-25T00:29:09.740Z,8.56
2018-04-25T00:31:38.645Z,8.56
2018-04-25T00:34:07.798Z,8.67
2018-04-25T00:36:36.198Z,8.70
2018-04-25T00:39:05.589Z,8.66
2018-04-25T00:41:33.313Z,8.61
2018-04-25T00:44:01.204Z,8.60
2018-04-25T00:46:29.333Z,8.49
2018-04-25T00:48:57.403Z,8.28
2018-04-25T00:51:25.264Z,8.24
2018-04-25T00:53:54.750Z,8.27
2018-04-25T00:56:23.140Z,8.21
2018-04-25T00:58:50.938Z,8.18
2018-04-25T01:01:18.868Z,8.22
2018-04-25T01:03:46.905Z,8.23
2018-04-25T01:06:15.019Z,8.33
2018-04-25T01:08:43.720Z,8.29
2018-04-25T01:11:12.504Z,8.24
2018-04-25T01:13:40.835Z,8.27
2018-04-25T01:16:10.312Z,8.34
2018-04-25T01:18:38.938Z,8.35
2018-04-25T01:21:06.853Z,8.32
2018-04-25T01:23:34.827Z,8.29
2018-04-25T01:26:06.816Z,8.26
2018-04-25T01:28:41.578Z,8.20
2018-04-25T01:31:11.308Z,8.20
2018-04-25T01:33:41.312Z,8.15
2018-04-25T01:36:21.650Z,8.06
2018-04-25T01:38:50.647Z,8.00
2018-04-25T01:41:19.049Z,8.08
2018-04-25T01:43:49.998Z,8.03
2018-04-25T01:46:34.807Z,8.00
2018-04-25T01:49:15.630Z,7.93
2018-04-25T01:51:55.244Z,7.81
2018-04-25T01:54:35.480Z,7.87
2018-04-25T01:57:16.878Z,7.89
2018-04-25T01:59:57.178Z,7.81
2018-04-25T02:02:24.930Z,7.77
2018-04-25T02:04:53.368Z,7.79
2018-04-25T02:07:22.703Z,7.73
2018-04-25T02:09:50.717Z,7.65
2018-04-25T02:12:19.034Z,7.55
2018-04-25T02:14:46.799Z,7.33
2018-04-25T02:17:14.253Z,7.34
2018-04-25T02:19:43.062Z,7.29
2018-04-25T02:22:10.453Z,7.31
2018-04-25T02:24:38.694Z,7.33
2018-04-25T02:27:07.402Z,7.24
2018-04-25T02:29:34.661Z,7.15
2018-04-25T02:32:04.046Z,7.25
2018-04-25T02:34:31.914Z,7.27
2018-04-25T02:37:00.028Z,7.25
2018-04-25T02:39:27.680Z,7.15
2018-04-25T02:41:54.909Z,7.14
2018-04-25T02:44:22.517Z,7.04
2018-04-25T02:46:50.503Z,7.08
2018-04-25T02:49:18.950Z,7.06
2018-04-25T02:51:46.984Z,7.05
2018-04-25T02:54:14.331Z,7.06
2018-04-25T02:56:42.739Z,7.14
2018-04-25T02:59:10.089Z,7.08
2018-04-25T03:01:37.884Z,7.03
2018-04-25T03:04:05.527Z,6.99
2018-04-25T03:06:32.878Z,6.89
2018-04-25T03:09:00.513Z,6.86
2018-04-25T03:11:28.206Z,6.92
2018-04-25T03:13:55.656Z,7.02
2018-04-25T03:16:23.754Z,6.94
2018-04-25T03:18:51.892Z,6.90
2018-04-25T03:21:21.805Z,6.86
2018-04-25T03:23:49.564Z,6.78
2018-04-25T03:26:16.959Z,6.83
2018-04-25T03:28:44.435Z,6.88
2018-04-25T03:31:12.500Z,6.93
2018-04-25T03:33:41.063Z,6.68
2018-04-25T03:36:08.348Z,6.64
2018-04-25T03:38:35.933Z,6.58
2018-04-25T03:41:04.804Z,6.66
2018-04-25T03:43:32.390Z,6.75
2018-04-25T03:46:00.399Z,6.79
2018-04-25T03:48:29.658Z,6.87
2018-04-25T03:50:57.025Z,6.65
2018-04-25T03:53:25.105Z,6.56
2018-04-25T03:55:52.966Z,6.55
2018-04-25T03:58:20.848Z,6.62
2018-04-25T04:00:48.067Z,6.59
2018-04-25T04:03:16.013Z,6.66
2018-04-25T04:05:44.221Z,6.70
2018-04-25T04:08:11.463Z,6.70
2018-04-25T04:10:40.178Z,6.71
2018-04-25T04:13:10.084Z,6.69
2018-04-25T04:15:38.378Z,6.61
2018-04-25T04:18:06.348Z,6.69
2018-04-25T04:20:34.049Z,6.75
2018-04-25T04:23:01.824Z,6.79
2018-04-25T04:25:31.559Z,6.76
2018-04-25T04:27:59.495Z,6.61
2018-04-25T04:30:27.481Z,6.66
2018-04-25T04:32:55.063Z,6.77
2018-04-25T04:35:23.254Z,6.89
2018-04-25T04:37:51.098Z,7.04
2018-04-25T04:40:18.859Z,7.20
2018-04-25T04:42:47.391Z,7.22
2018-04-25T04:45:15.621Z,7.31
2018-04-25T04:47:43.316Z,7.55
2018-04-25T04:50:12.029Z,7.98
2018-04-25T04:52:39.819Z,8.31
2018-04-25T04:55:07.786Z,8.64
2018-04-25T04:57:36.254Z,8.71
2018-04-25T05:00:04.460Z,9.42
2018-04-25T05:02:32.390Z,9.86
2018-04-25T05:05:00.711Z,10.65
2018-04-25T05:07:29.520Z,11.28
2018-04-25T05:09:57.645Z,10.91
2018-04-25T05:12:25.252Z,10.60
2018-04-25T05:14:53.688Z,10.91
2018-04-25T05:17:21.845Z,10.89
2018-04-25T05:19:49.909Z,11.83
2018-04-25T05:22:18.250Z,12.50
2018-04-25T05:24:46.324Z,13.39
2018-04-25T05:27:14.259Z,13.62
2018-04-25T05:29:42.667Z,13.36
2018-04-25T05:32:11.431Z,13.31
2018-04-25T05:34:39.539Z,13.52
2018-04-25T05:37:08.627Z,13.87
2018-04-25T05:39:36.776Z,13.53
2018-04-25T05:42:04.946Z,12.91
2018-04-25T05:44:33.605Z,12.76
2018-04-25T05:47:01.829Z,13.01
2018-04-25T05:49:29.764Z,13.06
2018-04-25T05:51:57.601Z,13.36
2018-04-25T05:54:26.610Z,14.64
2018-04-25T05:56:55.409Z,15.55
2018-04-25T05:59:23.985Z,15.71
2018-04-25T06:01:53.119Z,15.28
2018-04-25T06:04:21.523Z,15.15
2018-04-25T06:06:49.889Z,16.18
2018-04-25T06:09:18.259Z,17.23
2018-04-25T06:11:46.501Z,18.16
2018-04-25T06:14:15.089Z,19.19
2018-04-25T06:16:43.338Z,20.04
2018-04-25T06:19:11.356Z,21.64
2018-04-25T06:21:39.272Z,20.95
2018-04-25T06:24:07.444Z,21.21
2018-04-25T06:26:35.568Z,21.01
2018-04-25T06:29:03.211Z,20.54
2018-04-25T06:31:31.802Z,20.65
2018-04-25T06:33:59.767Z,21.73
2018-04-25T06:36:27.714Z,22.28
2018-04-25T06:38:55.330Z,22.57
2018-04-25T06:41:23.382Z,21.51
2018-04-25T06:43:51.624Z,20.85
2018-04-25T06:46:19.432Z,21.18
2018-04-25T06:48:47.272Z,21.61
2018-04-25T06:51:15.885Z,22.39
2018-04-25T06:53:43.996Z,22.87
2018-04-25T06:56:12.954Z,23.84
2018-04-25T06:58:45.711Z,24.54
2018-04-25T07:01:14.049Z,24.76
2018-04-25T07:03:42.101Z,24.86
2018-04-25T07:06:09.835Z,26.13
2018-04-25T07:08:37.760Z,26.38
2018-04-25T07:11:05.534Z,26.15
2018-04-25T07:13:33.724Z,26.44
2018-04-25T07:16:01.894Z,27.95
2018-04-25T07:18:29.821Z,28.13
2018-04-25T07:20:58.541Z,28.20
2018-04-25T07:23:27.246Z,28.89
2018-04-25T07:25:55.110Z,28.95
2018-04-25T07:28:23.340Z,29.45
2018-04-25T07:30:51.754Z,30.04
2018-04-25T07:33:20.165Z,30.30
2018-04-25T07:35:48.222Z,30.57
2018-04-25T07:38:16.607Z,30.76
2018-04-25T07:40:44.330Z,30.33
2018-04-25T07:43:12.170Z,28.72
2018-04-25T07:45:40.437Z,29.17
2018-04-25T07:48:08.375Z,29.70
2018-04-25T07:50:36.606Z,29.54
2018-04-25T07:53:04.795Z,29.85
2018-04-25T07:55:34.408Z,30.28
2018-04-25T07:58:02.521Z,30.29
2018-04-25T08:00:31.692Z,30.57
2018-04-25T08:02:59.666Z,31.14
2018-04-25T08:05:28.202Z,31.93
2018-04-25T08:07:56.625Z,31.63
2018-04-25T08:10:24.491Z,31.70
2018-04-25T08:13:04.570Z,33.11
2018-04-25T08:15:44.875Z,31.87
2018-04-25T08:18:26.124Z,32.09
2018-04-25T08:23:54.197Z,33.05
2018-04-25T08:26:22.625Z,32.44
2018-04-25T08:28:51.060Z,31.47
2018-04-25T08:31:22.491Z,29.75
2018-04-25T08:33:52.012Z,29.50
2018-04-25T08:36:21.365Z,28.62
2018-04-25T08:38:50.540Z,29.55
2018-04-25T08:41:18.874Z,30.20
2018-04-25T08:43:46.711Z,31.17
2018-04-25T08:46:15.529Z,31.85
2018-04-25T08:48:44.101Z,32.31
2018-04-25T08:51:12.468Z,32.87
2018-04-25T08:53:41.323Z,32.12
2018-04-25T08:56:08.861Z,32.03
2018-04-25T08:58:37.773Z,31.48
2018-04-25T09:01:06.221Z,31.04
2018-04-25T09:03:34.327Z,31.42
2018-04-25T09:06:02.286Z,31.51
2018-04-25T09:08:30.695Z,31.67
2018-04-25T09:10:59.820Z,31.54
2018-04-25T09:13:28.754Z,30.78
2018-04-25T09:15:57.296Z,31.03
2018-04-25T09:18:24.860Z,31.50
2018-04-25T09:20:53.284Z,32.52
2018-04-25T09:23:20.876Z,33.07
2018-04-25T09:25:53.416Z,33.29
2018-04-25T09:28:21.216Z,34.24
2018-04-25T09:30:49.760Z,34.22
2018-04-25T09:33:19.232Z,33.60
2018-04-25T09:35:48.316Z,34.92
2018-04-25T09:38:16.935Z,33.59
2018-04-25T09:40:45.040Z,32.47
2018-04-25T09:43:13.132Z,33.58
2018-04-25T09:45:40.810Z,34.55
2018-04-25T09:48:08.417Z,35.85
2018-04-25T09:50:37.306Z,36.33
2018-04-25T09:53:05.796Z,33.37
2018-04-25T09:55:34.081Z,32.12
2018-04-25T09:58:01.942Z,32.71
2018-04-25T10:00:35.252Z,33.32
2018-04-25T10:03:05.109Z,33.15
2018-04-25T10:05:32.998Z,33.42
2018-04-25T10:08:00.858Z,34.13
2018-04-25T10:10:29.161Z,33.28
2018-04-25T10:12:57.438Z,34.03
2018-04-25T10:15:26.818Z,33.87
2018-04-25T10:17:56.016Z,33.70
2018-04-25T10:20:24.687Z,32.95
2018-04-25T10:22:52.997Z,33.75
2018-04-25T10:25:20.762Z,34.26
2018-04-25T10:27:48.552Z,33.49
2018-04-25T10:30:17.987Z,34.92
2018-04-25T10:32:47.369Z,35.66
2018-04-25T10:35:15.253Z,35.45
2018-04-25T10:37:43.606Z,33.17
2018-04-25T10:40:11.686Z,34.89
2018-04-25T10:42:40.228Z,35.06
2018-04-25T10:45:08.467Z,34.64
2018-04-25T10:47:37.186Z,35.32
2018-04-25T10:50:06.277Z,35.94
2018-04-25T10:52:34.233Z,33.73
2018-04-25T10:55:02.492Z,30.87
2018-04-25T10:57:31.234Z,29.77
2018-04-25T11:00:00.777Z,27.26
2018-04-25T11:02:29.747Z,27.27
2018-04-25T11:04:58.666Z,26.28
2018-04-25T11:07:27.100Z,26.27
2018-04-25T11:09:55.124Z,26.80
2018-04-25T11:12:24.212Z,26.93
2018-04-25T11:14:53.071Z,29.57
2018-04-25T11:17:21.596Z,29.64
2018-04-25T11:19:50.554Z,27.46
2018-04-25T11:22:19.016Z,26.96
2018-04-25T11:24:47.482Z,26.48
2018-04-25T11:27:19.877Z,26.19
2018-04-25T11:29:47.743Z,25.68
2018-04-25T11:32:16.283Z,25.09
2018-04-25T11:34:44.561Z,24.73
2018-04-25T11:37:12.550Z,24.15
2018-04-25T11:39:40.441Z,24.17
2018-04-25T11:42:08.076Z,24.90
2018-04-25T11:44:36.168Z,24.76
2018-04-25T11:47:04.059Z,24.38
2018-04-25T11:49:32.342Z,23.97
2018-04-25T11:52:00.061Z,23.79
2018-04-25T11:54:28.378Z,23.92
2018-04-25T11:56:56.893Z,23.54
2018-04-25T11:59:25.178Z,23.26
2018-04-25T12:01:53.510Z,23.12
2018-04-25T12:04:21.344Z,23.64
2018-04-25T12:06:50.133Z,24.23
2018-04-25T12:09:17.751Z,24.96
2018-04-25T12:11:46.636Z,24.58
2018-04-25T12:14:14.879Z,24.27
2018-04-25T12:16:43.005Z,23.95
2018-04-25T12:19:10.878Z,23.67
2018-04-25T12:21:39.341Z,23.27
2018-04-25T12:24:07.581Z,22.80
2018-04-25T12:26:36.682Z,23.19
2018-04-25T12:29:04.413Z,23.43
2018-04-25T12:31:32.943Z,23.21
2018-04-25T12:34:00.927Z,23.17
2018-04-25T12:36:29.691Z,22.99
2018-04-25T12:38:58.003Z,24.44
2018-04-25T12:41:25.575Z,27.90
2018-04-25T12:43:53.301Z,27.67
2018-04-25T12:46:20.982Z,26.93
2018-04-25T12:48:49.447Z,28.72
2018-04-25T12:51:17.866Z,28.35
2018-04-25T12:53:46.359Z,27.47
2018-04-25T12:56:15.804Z,26.15
2018-04-25T12:58:44.847Z,27.81
2018-04-25T13:01:12.754Z,29.05
2018-04-25T13:03:41.141Z,30.59
2018-04-25T13:06:09.408Z,32.13
2018-04-25T13:08:36.948Z,34.09
2018-04-25T13:11:05.972Z,32.30
2018-04-25T13:13:34.107Z,31.19
2018-04-25T13:16:02.474Z,32.52
2018-04-25T13:18:30.549Z,31.06
2018-04-25T13:20:59.791Z,32.41
2018-04-25T13:23:27.798Z,30.08
2018-04-25T13:25:56.050Z,28.49
2018-04-25T13:28:23.763Z,27.74
2018-04-25T13:30:51.763Z,26.85
2018-04-25T13:33:19.982Z,26.36
2018-04-25T13:35:48.562Z,27.52
2018-04-25T13:38:16.622Z,29.79
2018-04-25T13:40:44.154Z,29.27
2018-04-25T13:43:12.568Z,27.52
2018-04-25T13:45:40.702Z,26.94
2018-04-25T13:48:08.346Z,26.47
2018-04-25T13:50:37.029Z,25.19
2018-04-25T13:53:05.668Z,25.20
2018-04-25T13:55:34.562Z,26.51
2018-04-25T13:58:02.783Z,26.22
2018-04-25T14:00:31.450Z,25.70
2018-04-25T14:02:59.393Z,25.07
2018-04-25T14:05:27.841Z,25.12
2018-04-25T14:07:55.567Z,25.26
2018-04-25T14:10:23.807Z,26.58
2018-04-25T14:12:51.956Z,26.18
2018-04-25T14:15:19.867Z,25.96
2018-04-25T14:17:47.586Z,25.77
2018-04-25T14:20:15.423Z,25.05
2018-04-25T14:22:44.173Z,25.03
2018-04-25T14:25:12.167Z,24.90
2018-04-25T14:27:40.399Z,24.90
2018-04-25T14:30:08.681Z,24.80
2018-04-25T14:32:36.712Z,24.52
2018-04-25T14:35:04.768Z,24.30
2018-04-25T14:37:32.669Z,24.04
2018-04-25T14:40:00.387Z,24.10
2018-04-25T14:42:28.377Z,24.14
2018-04-25T14:44:57.059Z,23.94
2018-04-25T14:47:25.819Z,23.97
2018-04-25T14:49:54.097Z,23.63
2018-04-25T14:52:22.483Z,23.64
2018-04-25T14:54:50.880Z,23.79
2018-04-25T14:57:18.533Z,23.85
2018-04-25T14:59:47.197Z,23.69
2018-04-25T15:02:15.262Z,23.60
2018-04-25T15:04:43.264Z,23.25
2018-04-25T15:07:11.093Z,23.26
2018-04-25T15:09:38.959Z,23.20
2018-04-25T15:12:06.668Z,23.19
2018-04-25T15:14:34.863Z,22.91
2018-04-25T15:17:02.794Z,22.77
2018-04-25T15:19:30.638Z,22.32
2018-04-25T15:21:58.672Z,21.96
2018-04-25T15:24:27.112Z,21.75
2018-04-25T15:26:55.608Z,22.06
2018-04-25T15:29:23.604Z,21.98
2018-04-25T15:31:51.951Z,21.83
2018-04-25T15:34:19.601Z,21.66
2018-04-25T15:36:47.811Z,21.41
2018-04-25T15:39:15.348Z,21.47
2018-04-25T15:41:43.601Z,21.40
2018-04-25T15:44:11.192Z,21.24
2018-04-25T15:46:39.675Z,21.22
2018-04-25T15:49:07.752Z,21.15
2018-04-25T15:51:36.103Z,21.04
2018-04-25T15:54:04.407Z,20.91
2018-04-25T15:56:33.576Z,20.91
2018-04-25T15:59:01.988Z,20.94
2018-04-25T16:01:30.268Z,20.84
2018-04-25T16:03:58.549Z,20.81
2018-04-25T16:06:26.099Z,20.87
2018-04-25T16:08:54.048Z,20.91
2018-04-25T16:11:21.813Z,20.85
2018-04-25T16:13:50.173Z,20.68
2018-04-25T16:16:18.323Z,20.70
2018-04-25T16:18:46.899Z,20.72
2018-04-25T16:21:14.799Z,20.62
2018-04-25T16:23:43.071Z,20.75
2018-04-25T16:26:11.178Z,20.89
2018-04-25T16:28:38.984Z,20.79
2018-04-25T16:31:07.035Z,20.81
2018-04-25T16:33:35.375Z,20.71
2018-04-25T16:36:03.354Z,20.68
2018-04-25T16:38:31.112Z,20.56
2018-04-25T16:40:59.019Z,20.49
2018-04-25T16:43:27.285Z,20.39
2018-04-25T16:45:55.445Z,20.34
2018-04-25T16:48:23.210Z,20.27
2018-04-25T16:50:51.150Z,20.26
2018-04-25T16:53:19.930Z,20.18
2018-04-25T16:55:48.123Z,20.27
2018-04-25T16:58:16.436Z,20.25
2018-04-25T17:00:44.788Z,19.92
2018-04-25T17:03:13.351Z,19.93
2018-04-25T17:05:40.994Z,19.90
2018-04-25T17:08:08.729Z,19.76
2018-04-25T17:10:37.511Z,19.73
2018-04-25T17:13:06.075Z,19.68
2018-04-25T17:15:34.550Z,19.48
2018-04-25T17:18:02.294Z,19.47
2018-04-25T17:20:30.021Z,19.24
2018-04-25T17:22:58.072Z,19.29
2018-04-25T17:25:27.334Z,19.34
2018-04-25T17:27:56.340Z,19.41
2018-04-25T17:30:25.074Z,19.37
2018-04-25T17:32:53.334Z,19.58
2018-04-25T17:35:21.925Z,19.79
2018-04-25T17:37:50.976Z,19.80
2018-04-25T17:40:18.802Z,19.72
2018-04-25T17:42:47.541Z,19.65
2018-04-25T17:45:15.816Z,19.52
2018-04-25T17:47:43.510Z,19.41
2018-04-25T17:50:11.498Z,19.17
2018-04-25T17:52:40.011Z,19.13
2018-04-25T17:55:08.352Z,19.05
2018-04-25T17:57:36.697Z,18.88
2018-04-25T18:00:04.858Z,18.69
2018-04-25T18:02:32.868Z,18.62
2018-04-25T18:05:01.220Z,18.41
2018-04-25T18:07:28.976Z,18.43
2018-04-25T18:09:56.498Z,18.39
2018-04-25T18:12:25.624Z,18.36
2018-04-25T18:14:53.300Z,18.32
2018-04-25T18:17:21.005Z,18.25
2018-04-25T18:19:48.946Z,18.17
2018-04-25T18:22:17.179Z,18.13
2018-04-25T18:24:44.786Z,17.99
2018-04-25T18:27:12.480Z,17.88
2018-04-25T18:29:40.411Z,17.87
2018-04-25T18:32:08.055Z,17.77
2018-04-25T18:34:35.914Z,17.47
2018-04-25T18:37:08.151Z,17.25
2018-04-25T18:39:36.682Z,17.16
2018-04-25T18:42:05.765Z,17.13
2018-04-25T18:44:33.649Z,17.03
2018-04-25T18:47:01.947Z,16.95
2018-04-25T18:49:29.954Z,16.92
2018-04-25T18:51:58.250Z,16.84
2018-04-25T18:54:26.611Z,16.90
2018-04-25T18:56:54.800Z,16.83
2018-04-25T18:59:23.694Z,16.70
2018-04-25T19:01:52.294Z,16.60
2018-04-25T19:04:21.240Z,16.48
2018-04-25T19:06:49.615Z,16.51
2018-04-25T19:09:18.730Z,16.60
2018-04-25T19:11:47.190Z,16.66
2018-04-25T19:14:15.779Z,16.71
2018-04-25T19:16:44.268Z,16.76
2018-04-25T19:19:14.321Z,16.82
2018-04-25T19:21:42.979Z,16.78
2018-04-25T19:24:14.376Z,16.81
2018-04-25T19:26:43.131Z,16.80
2018-04-25T19:29:11.493Z,16.77
2018-04-25T19:31:39.608Z,16.77
2018-04-25T19:34:08.265Z,16.69
2018-04-25T19:36:38.065Z,16.62
2018-04-25T19:39:06.395Z,16.63
2018-04-25T19:41:35.469Z,16.68
2018-04-25T19:44:03.721Z,16.71
2018-04-25T19:46:34.019Z,16.71
2018-04-25T19:49:01.896Z,16.66
2018-04-25T19:51:30.399Z,16.57
2018-04-25T19:53:59.015Z,16.48
2018-04-25T19:56:27.233Z,16.43
2018-04-25T19:58:55.944Z,16.36
2018-04-25T20:01:24.860Z,16.35
2018-04-25T20:03:52.905Z,16.37
2018-04-25T20:06:21.873Z,16.29
2018-04-25T20:08:50.164Z,16.05
2018-04-25T20:11:20.511Z,16.00
2018-04-25T20:13:48.902Z,15.97
2018-04-25T20:16:18.732Z,15.85
2018-04-25T20:18:47.421Z,15.67
2018-04-25T20:21:16.390Z,15.49
2018-04-25T20:23:44.771Z,15.50
2018-04-25T20:26:12.911Z,15.45
2018-04-25T20:28:42.950Z,15.36
2018-04-25T20:31:11.680Z,15.39
2018-04-25T20:33:40.327Z,15.51
2018-04-25T20:36:08.383Z,15.68
2018-04-25T20:38:37.744Z,15.80
2018-04-25T20:41:06.451Z,15.94
2018-04-25T20:43:35.206Z,15.93
2018-04-25T20:46:04.007Z,15.95
2018-04-25T20:48:34.498Z,15.97
2018-04-25T20:51:02.997Z,15.92
2018-04-25T20:53:31.025Z,15.89
2018-04-25T20:55:59.167Z,15.89
2018-04-25T20:58:29.759Z,15.94
2018-04-25T21:01:04.641Z,15.94
2018-04-25T21:03:33.435Z,15.89
2018-04-25T21:06:01.572Z,15.87
2018-04-25T21:08:30.366Z,15.86
2018-04-25T21:11:00.214Z,15.78
2018-04-25T21:13:28.081Z,15.70
2018-04-25T21:15:56.460Z,15.65
2018-04-25T21:18:24.571Z,15.68
2018-04-25T21:20:52.817Z,15.73
2018-04-25T21:23:21.061Z,15.69
2018-04-25T21:25:49.014Z,15.59
2018-04-25T21:28:18.029Z,15.44
2018-04-25T21:30:45.930Z,15.34
2018-04-25T21:33:13.740Z,15.18
2018-04-25T21:35:41.454Z,15.02
2018-04-25T21:38:10.064Z,14.82
2018-04-25T21:40:37.875Z,14.83
2018-04-25T21:43:06.258Z,14.63
2018-04-25T21:45:33.975Z,14.40
2018-04-25T21:48:01.662Z,14.46
2018-04-25T21:50:29.950Z,14.36
2018-04-25T21:52:57.600Z,14.41
2018-04-25T21:55:25.816Z,14.32
2018-04-25T21:57:53.871Z,14.24
2018-04-25T22:00:21.611Z,14.08
2018-04-25T22:02:49.966Z,13.93
2018-04-25T22:05:18.196Z,13.95
2018-04-25T22:07:46.262Z,14.06
2018-04-25T22:10:14.122Z,14.03
2018-04-25T22:12:42.096Z,14.04
2018-04-25T22:15:10.742Z,14.10
2018-04-25T22:17:38.549Z,14.10
2018-04-25T22:20:06.290Z,14.07
2018-04-25T22:22:34.452Z,14.12
2018-04-25T22:25:03.202Z,14.17
2018-04-25T22:27:31.082Z,14.33
2018-04-25T22:29:58.837Z,14.41
2018-04-25T22:32:26.743Z,14.41
2018-04-25T22:34:54.425Z,14.46
2018-04-25T22:37:22.569Z,14.47
2018-04-25T22:39:50.448Z,14.46
2018-04-25T22:42:18.352Z,14.45
2018-04-25T22:44:46.254Z,14.38
2018-04-25T22:47:14.274Z,14.40
2018-04-25T22:49:42.064Z,14.41
2018-04-25T22:52:09.915Z,14.35
2018-04-25T22:54:37.776Z,14.28
2018-04-25T22:57:05.646Z,14.14
2018-04-25T22:59:33.719Z,14.07
2018-04-25T23:02:01.337Z,13.93
2018-04-25T23:04:30.165Z,13.88
2018-04-25T23:06:58.671Z,13.74
2018-04-25T23:09:26.944Z,13.60
2018-04-25T23:11:55.695Z,13.49
2018-04-25T23:14:23.730Z,13.22
2018-04-25T23:16:51.541Z,13.05
2018-04-25T23:19:19.620Z,12.86
2018-04-25T23:21:47.650Z,12.98
2018-04-25T23:24:15.285Z,12.92
2018-04-25T23:26:43.836Z,12.90
2018-04-25T23:29:12.085Z,12.78
2018-04-25T23:31:40.280Z,12.81
2018-04-25T23:34:08.392Z,12.80
2018-04-25T23:36:40.010Z,12.80
2018-04-25T23:39:07.776Z,12.80
2018-04-25T23:41:36.461Z,12.74
2018-04-25T23:44:04.441Z,12.74
2018-04-25T23:46:32.752Z,12.63
2018-04-25T23:49:00.711Z,12.78
2018-04-25T23:51:28.250Z,12.78
2018-04-25T23:53:56.291Z,12.72
2018-04-25T23:56:25.346Z,12.68
2018-04-25T23:58:53.223Z,12.65
